createdAt,value
2022-12-31T00:00:52.500Z,97.40
2022-12-31T00:03:20.803Z,97.40
2022-12-31T00:05:55.742Z,97.40
2022-12-31T00:08:24.017Z,97.40
2022-12-31T00:10:52.224Z,97.40
2022-12-31T00:13:20.491Z,97.40
2022-12-31T00:15:48.628Z,97.40
2022-12-31T00:18:16.847Z,97.40
2022-12-31T00:20:45.222Z,97.40
2022-12-31T00:23:14.853Z,97.40
2022-12-31T00:25:43.015Z,97.40
2022-12-31T00:28:11.127Z,97.40
2022-12-31T00:30:41.636Z,97.40
2022-12-31T00:33:09.955Z,97.40
2022-12-31T00:35:38.077Z,97.40
2022-12-31T00:38:06.353Z,97.40
2022-12-31T00:40:35.928Z,97.40
2022-12-31T00:43:07.253Z,97.40
2022-12-31T00:45:35.395Z,97.40
2022-12-31T00:48:03.643Z,97.40
2022-12-31T00:50:31.732Z,97.40
2022-12-31T00:52:59.934Z,97.40
2022-12-31T00:55:28.198Z,97.40
2022-12-31T00:57:57.867Z,97.40
2022-12-31T01:00:26.123Z,97.40
2022-12-31T01:02:56.626Z,97.40
2022-12-31T01:05:25.003Z,97.40
2022-12-31T01:07:55.006Z,97.40
2022-12-31T01:10:37.071Z,97.40
2022-12-31T01:13:06.587Z,97.40
2022-12-31T01:15:36.319Z,97.40
2022-12-31T01:18:05.678Z,97.40
2022-12-31T01:20:38.026Z,97.40
2022-12-31T01:23:06.994Z,97.40
2022-12-31T01:25:37.353Z,97.40
2022-12-31T01:28:08.874Z,97.40
2022-12-31T01:30:51.144Z,97.40
2022-12-31T01:33:24.403Z,97.40
2022-12-31T01:35:53.363Z,97.40
2022-12-31T01:38:25.586Z,97.40
2022-12-31T01:40:57.496Z,97.40
2022-12-31T01:43:47.854Z,97.40
2022-12-31T01:46:27.990Z,97.40
2022-12-31T01:49:00.322Z,97.40
2022-12-31T01:51:34.529Z,97.40
2022-12-31T01:54:05.074Z,97.40
2022-12-31T01:56:34.223Z,97.40
2022-12-31T01:59:09.216Z,97.40
2022-12-31T02:01:39.706Z,97.40
2022-12-31T02:04:12.789Z,97.40
2022-12-31T02:06:49.919Z,97.40
2022-12-31T02:09:18.095Z,97.40
2022-12-31T02:11:46.255Z,97.40
2022-12-31T02:14:22.380Z,97.40
2022-12-31T02:16:59.609Z,97.40
2022-12-31T02:20:22.641Z,97.40
2022-12-31T02:23:22.470Z,97.40
2022-12-31T02:26:10.743Z,97.40
2022-12-31T02:29:11.602Z,97.40
2022-12-31T02:31:47.176Z,97.40
2022-12-31T02:34:25.606Z,97.40
2022-12-31T02:36:56.281Z,97.40
2022-12-31T02:39:25.001Z,97.40
2022-12-31T02:41:53.881Z,97.40
2022-12-31T02:44:28.365Z,97.40
2022-12-31T02:47:11.402Z,97.40
2022-12-31T02:49:51.706Z,97.40
2022-12-31T02:52:29.153Z,97.40
2022-12-31T02:55:05.487Z,97.40
2022-12-31T02:57:41.255Z,97.40
2022-12-31T03:00:31.480Z,97.40
2022-12-31T03:03:03.121Z,97.40
2022-12-31T03:05:37.364Z,97.40
2022-12-31T03:08:06.063Z,97.40
2022-12-31T03:10:34.643Z,97.40
2022-12-31T03:13:02.043Z,97.40
2022-12-31T03:15:32.610Z,97.40
2022-12-31T03:18:07.625Z,97.40
2022-12-31T03:20:56.217Z,97.40
2022-12-31T03:23:30.268Z,97.40
2022-12-31T03:25:58.016Z,97.40
2022-12-31T03:28:29.018Z,97.40
2022-12-31T03:31:01.247Z,97.40
2022-12-31T03:33:34.787Z,97.40
2022-12-31T03:36:07.331Z,97.40
2022-12-31T03:38:35.523Z,97.40
2022-12-31T03:41:05.121Z,97.40
2022-12-31T03:43:33.266Z,97.40
2022-12-31T03:46:01.617Z,97.40
2022-12-31T03:48:29.970Z,97.40
2022-12-31T03:50:59.579Z,97.40
2022-12-31T03:53:27.751Z,97.40
2022-12-31T03:55:56.147Z,97.40
2022-12-31T03:58:24.334Z,97.40
2022-12-31T04:00:52.689Z,97.40
2022-12-31T04:03:20.907Z,97.40
2022-12-31T04:05:54.956Z,97.40
2022-12-31T04:08:24.814Z,97.40
2022-12-31T04:10:53.036Z,97.40
2022-12-31T04:13:21.237Z,97.40
2022-12-31T04:15:52.180Z,97.40
2022-12-31T04:18:20.401Z,97.40
2022-12-31T04:20:48.605Z,97.40
2022-12-31T04:23:18.143Z,97.40
2022-12-31T04:25:47.826Z,97.40
2022-12-31T04:28:15.954Z,97.40
2022-12-31T04:30:44.846Z,97.40
2022-12-31T04:33:13.080Z,97.40
2022-12-31T04:35:41.732Z,97.40
2022-12-31T04:38:10.321Z,97.40
2022-12-31T04:40:58.682Z,97.40
2022-12-31T04:43:29.045Z,97.40
2022-12-31T04:45:57.418Z,97.40
2022-12-31T04:48:25.626Z,97.40
2022-12-31T04:50:53.765Z,97.40
2022-12-31T04:53:21.915Z,97.40
2022-12-31T04:55:50.051Z,97.40
2022-12-31T04:58:19.004Z,97.40
2022-12-31T05:00:50.402Z,97.40
2022-12-31T05:03:19.258Z,97.40
2022-12-31T05:05:47.590Z,97.40
2022-12-31T05:08:17.112Z,97.40
2022-12-31T05:10:47.797Z,97.40
2022-12-31T05:13:16.929Z,97.40
2022-12-31T05:15:48.397Z,97.40
2022-12-31T05:18:16.907Z,97.40
2022-12-31T05:20:45.134Z,97.40
2022-12-31T05:23:13.693Z,97.40
2022-12-31T05:25:43.243Z,97.40
2022-12-31T05:28:11.976Z,97.40
2022-12-31T05:30:40.284Z,97.40
2022-12-31T05:33:09.839Z,97.40
2022-12-31T05:35:38.133Z,97.40
2022-12-31T05:38:06.290Z,97.40
2022-12-31T05:40:34.445Z,97.40
2022-12-31T05:43:02.642Z,97.40
2022-12-31T05:45:31.457Z,97.40
2022-12-31T05:47:59.740Z,97.40
2022-12-31T05:50:29.340Z,97.40
2022-12-31T05:52:57.708Z,97.40
2022-12-31T05:55:26.107Z,97.40
2022-12-31T05:57:54.323Z,97.40
2022-12-31T06:00:22.624Z,97.40
2022-12-31T06:02:50.907Z,97.40
2022-12-31T06:05:25.731Z,97.40
2022-12-31T06:07:55.806Z,97.40
2022-12-31T06:10:24.003Z,97.40
2022-12-31T06:12:52.167Z,97.40
2022-12-31T06:15:20.452Z,97.40
2022-12-31T06:17:48.667Z,97.40
2022-12-31T06:20:17.102Z,97.40
2022-12-31T06:22:45.324Z,97.40
2022-12-31T06:25:15.145Z,97.40
2022-12-31T06:27:43.253Z,97.40
2022-12-31T06:30:13.341Z,97.40
2022-12-31T06:32:42.085Z,97.40
2022-12-31T06:35:10.798Z,97.40
2022-12-31T06:37:39.139Z,97.40
2022-12-31T06:40:09.470Z,97.40
2022-12-31T06:42:39.115Z,97.40
2022-12-31T06:45:09.111Z,97.40
2022-12-31T06:47:37.355Z,97.40
2022-12-31T06:50:06.941Z,97.40
2022-12-31T06:52:35.170Z,97.40
2022-12-31T06:55:04.845Z,97.40
2022-12-31T06:57:33.955Z,97.40
2022-12-31T07:00:04.901Z,97.40
2022-12-31T07:03:01.730Z,97.40
2022-12-31T07:05:43.294Z,97.40
2022-12-31T07:08:30.496Z,97.40
2022-12-31T07:11:06.027Z,97.40
2022-12-31T07:14:02.621Z,97.40
2022-12-31T07:16:45.687Z,97.40
2022-12-31T07:19:25.227Z,97.40
2022-12-31T07:21:55.396Z,97.40
2022-12-31T07:24:24.520Z,97.40
2022-12-31T07:27:18.599Z,97.40
2022-12-31T07:30:02.970Z,97.40
2022-12-31T07:32:48.951Z,97.40
2022-12-31T07:35:29.696Z,97.40
2022-12-31T07:38:11.809Z,97.40
2022-12-31T07:40:57.611Z,97.40
2022-12-31T07:43:34.379Z,97.40
2022-12-31T07:46:14.504Z,97.40
2022-12-31T07:48:44.856Z,97.40
2022-12-31T07:51:13.948Z,97.40
2022-12-31T07:53:42.195Z,97.40
2022-12-31T07:56:11.250Z,97.40
2022-12-31T07:58:58.784Z,97.40
2022-12-31T08:01:40.761Z,97.40
2022-12-31T08:04:19.504Z,97.40
2022-12-31T08:06:59.382Z,97.40
2022-12-31T08:09:42.515Z,97.40
2022-12-31T08:12:11.115Z,97.40
2022-12-31T08:14:46.390Z,97.40
2022-12-31T08:17:17.619Z,97.40
2022-12-31T08:19:48.186Z,97.40
2022-12-31T08:22:45.497Z,97.40
2022-12-31T08:25:20.866Z,97.40
2022-12-31T08:28:04.082Z,97.40
2022-12-31T08:30:48.230Z,97.40
2022-12-31T08:33:25.950Z,97.40
2022-12-31T08:36:12.653Z,97.40
2022-12-31T08:38:49.153Z,97.40
2022-12-31T08:41:25.103Z,97.40
2022-12-31T08:44:07.643Z,97.40
2022-12-31T08:46:46.558Z,97.40
2022-12-31T08:49:15.865Z,97.40
2022-12-31T08:51:47.118Z,97.40
2022-12-31T08:54:16.020Z,97.40
2022-12-31T08:56:53.224Z,97.40
2022-12-31T08:59:37.059Z,97.40
2022-12-31T09:02:50.263Z,97.40
2022-12-31T09:05:28.247Z,97.40
2022-12-31T09:08:13.060Z,97.40
2022-12-31T09:10:48.630Z,97.40
2022-12-31T09:13:28.336Z,97.40
2022-12-31T09:16:05.965Z,97.40
2022-12-31T09:18:43.502Z,97.40
2022-12-31T09:21:15.430Z,97.40
2022-12-31T09:23:46.934Z,97.40
2022-12-31T09:26:47.647Z,97.40
2022-12-31T09:29:31.608Z,97.40
2022-12-31T09:32:10.721Z,97.40
2022-12-31T09:34:48.235Z,97.40
2022-12-31T09:37:22.780Z,97.40
2022-12-31T09:39:53.442Z,97.40
2022-12-31T09:43:01.692Z,97.40
2022-12-31T09:46:19.383Z,97.40
2022-12-31T09:49:38.896Z,97.40
2022-12-31T09:52:18.571Z,97.40
2022-12-31T09:54:56.213Z,97.40
2022-12-31T09:57:42.070Z,97.40
2022-12-31T10:00:18.533Z,97.40
2022-12-31T10:03:31.465Z,97.40
2022-12-31T10:06:23.509Z,97.40
2022-12-31T10:09:25.982Z,97.40
2022-12-31T10:12:15.388Z,97.40
2022-12-31T10:15:13.401Z,97.40
2022-12-31T10:17:58.878Z,97.40
2022-12-31T10:20:55.994Z,97.40
2022-12-31T10:23:53.305Z,97.40
2022-12-31T10:26:53.544Z,97.40
2022-12-31T10:29:40.592Z,97.40
2022-12-31T10:32:19.046Z,97.40
2022-12-31T10:34:56.995Z,97.40
2022-12-31T10:37:30.515Z,97.40
2022-12-31T10:40:13.794Z,97.40
2022-12-31T10:43:32.398Z,97.40
2022-12-31T10:46:41.096Z,97.20
2022-12-31T10:49:54.051Z,97.00
2022-12-31T10:53:07.924Z,96.90
2022-12-31T10:56:32.797Z,96.70
2022-12-31T10:59:40.842Z,96.30
2022-12-31T11:02:44.592Z,96.10
2022-12-31T11:06:12.936Z,95.80
2022-12-31T11:09:34.697Z,96.20
2022-12-31T11:12:11.834Z,95.90
2022-12-31T11:14:58.284Z,95.90
2022-12-31T11:17:49.375Z,96.00
2022-12-31T11:21:24.553Z,95.20
2022-12-31T11:24:06.608Z,95.10
2022-12-31T11:26:51.406Z,94.70
2022-12-31T11:29:37.379Z,94.50
2022-12-31T11:32:18.079Z,94.70
2022-12-31T11:35:18.794Z,94.50
2022-12-31T11:37:50.555Z,94.60
2022-12-31T11:40:43.006Z,94.30
2022-12-31T11:43:25.569Z,94.00
2022-12-31T11:46:24.280Z,93.80
2022-12-31T11:49:12.560Z,93.50
2022-12-31T11:52:03.450Z,93.90
2022-12-31T11:55:08.879Z,93.50
2022-12-31T11:57:39.460Z,93.40
2022-12-31T12:00:19.583Z,93.40
2022-12-31T12:02:51.602Z,92.90
2022-12-31T12:05:24.325Z,93.00
2022-12-31T12:07:55.159Z,92.40
2022-12-31T12:10:33.737Z,92.60
2022-12-31T12:13:14.337Z,92.00
2022-12-31T12:15:48.316Z,92.10
2022-12-31T12:18:28.742Z,92.40
2022-12-31T12:21:06.840Z,92.30
2022-12-31T12:23:36.545Z,92.20
2022-12-31T12:26:06.543Z,91.10
2022-12-31T12:28:45.485Z,91.30
2022-12-31T12:31:22.388Z,91.50
2022-12-31T12:33:52.367Z,91.60
2022-12-31T12:36:22.907Z,91.30
2022-12-31T12:39:03.346Z,91.70
2022-12-31T12:41:31.569Z,91.70
2022-12-31T12:44:08.883Z,91.00
2022-12-31T12:46:47.976Z,91.30
2022-12-31T12:49:24.340Z,91.40
2022-12-31T12:52:11.768Z,90.40
2022-12-31T12:55:02.001Z,90.80
2022-12-31T12:57:43.617Z,91.40
2022-12-31T13:00:19.735Z,91.40
2022-12-31T13:03:29.069Z,91.50
2022-12-31T13:06:21.360Z,91.10
2022-12-31T13:09:05.654Z,91.60
2022-12-31T13:11:45.698Z,91.70
2022-12-31T13:14:24.408Z,91.60
2022-12-31T13:17:04.078Z,91.40
2022-12-31T13:19:38.470Z,91.20
2022-12-31T13:22:24.860Z,90.90
2022-12-31T13:25:27.037Z,90.90
2022-12-31T13:28:26.332Z,91.10
2022-12-31T13:31:06.365Z,90.60
2022-12-31T13:33:42.893Z,90.90
2022-12-31T13:36:18.982Z,91.40
2022-12-31T13:38:50.464Z,91.30
2022-12-31T13:41:24.025Z,91.50
2022-12-31T13:44:03.606Z,91.20
2022-12-31T13:46:43.252Z,91.80
2022-12-31T13:49:19.776Z,91.90
2022-12-31T13:51:50.860Z,91.90
2022-12-31T13:54:33.226Z,91.90
2022-12-31T13:57:12.852Z,91.80
2022-12-31T13:59:50.070Z,92.00
2022-12-31T14:02:40.470Z,92.00
2022-12-31T14:05:25.563Z,92.00
2022-12-31T14:08:20.911Z,92.80
2022-12-31T14:11:16.168Z,92.50
2022-12-31T14:14:01.339Z,92.80
2022-12-31T14:16:42.155Z,93.50
2022-12-31T14:19:26.016Z,92.90
2022-12-31T14:22:05.953Z,93.50
2022-12-31T14:24:45.017Z,93.70
2022-12-31T14:27:20.596Z,93.70
2022-12-31T14:29:52.801Z,93.90
2022-12-31T14:33:06.642Z,93.90
2022-12-31T14:36:06.660Z,94.60
2022-12-31T14:38:54.770Z,94.80
2022-12-31T14:41:43.442Z,95.00
2022-12-31T14:44:28.590Z,94.60
2022-12-31T14:47:12.979Z,95.20
2022-12-31T14:49:56.877Z,95.70
2022-12-31T14:52:31.968Z,96.10
2022-12-31T14:55:03.231Z,96.50
2022-12-31T14:58:09.542Z,96.80
2022-12-31T15:00:34.157Z,97.40
2022-12-31T15:03:06.997Z,97.40
2022-12-31T15:05:38.803Z,97.40
2022-12-31T15:08:37.109Z,97.40
2022-12-31T15:11:23.866Z,97.40
2022-12-31T15:14:21.567Z,97.40
2022-12-31T15:17:07.103Z,97.40
2022-12-31T15:20:27.285Z,97.40
2022-12-31T15:22:57.485Z,97.40
2022-12-31T15:25:36.800Z,97.40
2022-12-31T15:28:12.067Z,97.40
2022-12-31T15:30:46.803Z,97.40
2022-12-31T15:33:28.986Z,97.40
2022-12-31T15:35:58.737Z,97.40
2022-12-31T15:38:38.003Z,97.40
2022-12-31T15:41:29.450Z,97.40
2022-12-31T15:44:02.142Z,97.40
2022-12-31T15:46:34.749Z,97.40
2022-12-31T15:49:11.745Z,97.40
2022-12-31T15:51:48.664Z,97.40
2022-12-31T15:54:28.536Z,97.40
2022-12-31T15:56:56.723Z,97.40
2022-12-31T15:59:26.147Z,97.40
2022-12-31T16:01:57.281Z,97.40
2022-12-31T16:04:28.411Z,97.40
2022-12-31T16:07:01.364Z,97.40
2022-12-31T16:09:34.322Z,97.40
2022-12-31T16:12:04.420Z,97.40
2022-12-31T16:14:37.954Z,97.40
2022-12-31T16:17:25.240Z,97.40
2022-12-31T16:19:53.573Z,97.40
2022-12-31T16:22:28.342Z,97.40
2022-12-31T16:27:51.051Z,97.40
2022-12-31T16:30:23.224Z,97.40
2022-12-31T16:32:52.397Z,97.40
2022-12-31T16:35:24.388Z,97.40
2022-12-31T16:38:13.168Z,97.40
2022-12-31T16:40:59.752Z,97.40
2022-12-31T16:43:30.681Z,97.40
2022-12-31T16:46:07.672Z,97.40
2022-12-31T16:48:36.096Z,97.40
2022-12-31T16:51:05.369Z,97.40
2022-12-31T16:53:37.941Z,97.40
2022-12-31T16:56:09.845Z,97.40
2022-12-31T16:58:41.506Z,97.40
2022-12-31T17:01:18.445Z,97.40
2022-12-31T17:03:53.759Z,97.40
2022-12-31T17:06:22.869Z,97.40
2022-12-31T17:09:12.780Z,97.40
2022-12-31T17:11:50.471Z,97.40
2022-12-31T17:14:22.987Z,97.40
2022-12-31T17:17:03.470Z,97.40
2022-12-31T17:19:42.366Z,97.40
2022-12-31T17:22:19.976Z,97.40
2022-12-31T17:24:51.329Z,97.40
2022-12-31T17:27:21.165Z,97.40
2022-12-31T17:29:49.326Z,97.40
2022-12-31T17:32:32.101Z,97.40
2022-12-31T17:35:00.536Z,97.40
2022-12-31T17:37:32.155Z,97.40
2022-12-31T17:40:40.568Z,97.40
2022-12-31T17:42:51.865Z,97.40
2022-12-31T17:45:23.434Z,97.40
2022-12-31T17:47:55.502Z,97.40
2022-12-31T17:50:26.563Z,97.40
2022-12-31T17:52:58.798Z,97.40
2022-12-31T17:55:29.512Z,97.40
2022-12-31T17:57:59.464Z,97.40
2022-12-31T18:00:28.775Z,97.40
2022-12-31T18:02:57.076Z,97.40
2022-12-31T18:05:25.903Z,97.40
2022-12-31T18:07:57.806Z,97.40
2022-12-31T18:10:28.444Z,97.40
2022-12-31T18:13:01.779Z,97.40
2022-12-31T18:15:30.008Z,97.40
2022-12-31T18:17:58.369Z,97.40
2022-12-31T18:20:27.544Z,97.40
2022-12-31T18:22:56.981Z,97.40
2022-12-31T18:25:27.661Z,97.40
2022-12-31T18:27:55.805Z,97.40
2022-12-31T18:30:25.708Z,97.40
2022-12-31T18:32:54.878Z,97.40
2022-12-31T18:38:15.059Z,97.40
2022-12-31T18:40:46.734Z,97.40
2022-12-31T18:43:17.703Z,97.40
2022-12-31T18:45:54.763Z,97.40
2022-12-31T18:48:23.141Z,97.40
2022-12-31T18:50:51.710Z,97.40
2022-12-31T18:53:23.097Z,97.40
2022-12-31T18:55:54.074Z,97.40
2022-12-31T18:58:22.577Z,97.40
2022-12-31T19:00:53.132Z,97.40
2022-12-31T19:03:24.190Z,97.40
2022-12-31T19:05:52.849Z,97.40
2022-12-31T19:08:23.064Z,97.40
2022-12-31T19:10:53.421Z,97.40
2022-12-31T19:13:23.191Z,97.40
2022-12-31T19:15:55.500Z,97.40
2022-12-31T19:18:23.670Z,97.40
2022-12-31T19:20:57.752Z,97.40
2022-12-31T19:23:26.578Z,97.40
2022-12-31T19:25:54.811Z,97.40
2022-12-31T19:28:25.604Z,97.40
2022-12-31T19:31:01.422Z,97.40
2022-12-31T19:33:29.601Z,97.40
2022-12-31T19:35:57.766Z,97.40
2022-12-31T19:38:28.707Z,97.40
2022-12-31T19:40:57.215Z,97.40
2022-12-31T19:43:25.945Z,97.40
2022-12-31T19:45:55.727Z,97.40
2022-12-31T19:48:32.305Z,97.40
2022-12-31T19:51:01.133Z,97.40
2022-12-31T19:53:29.732Z,97.40
2022-12-31T19:55:57.874Z,97.40
2022-12-31T19:58:27.681Z,97.40
2022-12-31T20:01:03.128Z,97.40
2022-12-31T20:03:32.538Z,97.40
2022-12-31T20:06:07.557Z,97.40
2022-12-31T20:08:36.326Z,97.40
2022-12-31T20:11:12.217Z,97.40
2022-12-31T20:13:41.729Z,97.40
2022-12-31T20:16:14.182Z,97.40
2022-12-31T20:18:43.554Z,97.40
2022-12-31T20:21:13.570Z,97.40
2022-12-31T20:23:41.808Z,97.40
2022-12-31T20:26:10.349Z,97.40
2022-12-31T20:28:39.459Z,97.40
2022-12-31T20:31:08.633Z,97.40
2022-12-31T20:33:38.305Z,97.40
2022-12-31T20:36:09.413Z,97.40
2022-12-31T20:38:37.761Z,97.40
2022-12-31T20:41:08.153Z,97.40
2022-12-31T20:43:37.002Z,97.40
2022-12-31T20:46:14.444Z,97.40
2022-12-31T20:49:10.256Z,97.40
2022-12-31T20:51:38.657Z,97.40
2022-12-31T20:54:10.574Z,97.40
2022-12-31T20:56:42.787Z,97.40
2022-12-31T20:59:11.723Z,97.40
2022-12-31T21:02:19.551Z,97.40
2022-12-31T21:04:34.552Z,97.40
2022-12-31T21:07:02.979Z,97.40
2022-12-31T21:09:31.215Z,97.40
2022-12-31T21:12:21.958Z,97.40
2022-12-31T21:14:50.181Z,97.40
2022-12-31T21:17:23.989Z,97.40
2022-12-31T21:19:54.758Z,97.40
2022-12-31T21:22:24.091Z,97.40
2022-12-31T21:24:52.359Z,97.40
2022-12-31T21:27:20.549Z,97.40
2022-12-31T21:30:17.598Z,97.40
2022-12-31T21:32:39.350Z,97.40
2022-12-31T21:38:03.062Z,97.40
2022-12-31T21:40:32.055Z,97.40
2022-12-31T21:43:06.423Z,97.40
2022-12-31T21:46:03.841Z,97.40
2022-12-31T21:48:36.445Z,97.40
2022-12-31T21:51:12.933Z,97.40
2022-12-31T21:59:19.141Z,97.40
2022-12-31T22:11:58.841Z,97.40
2022-12-31T22:23:43.521Z,97.40
2022-12-31T22:26:14.740Z,97.40
2022-12-31T22:29:07.789Z,97.40
2022-12-31T22:36:20.318Z,97.40
2022-12-31T22:39:06.187Z,97.40
2022-12-31T22:41:35.437Z,97.40
2022-12-31T22:44:05.189Z,97.40
2022-12-31T22:46:34.203Z,97.40
2022-12-31T22:49:04.931Z,97.40
2022-12-31T22:51:55.996Z,97.40
2022-12-31T22:54:23.596Z,97.40
2022-12-31T22:56:59.804Z,97.40
2022-12-31T22:59:29.355Z,97.40
2022-12-31T23:01:57.518Z,97.40
2022-12-31T23:04:27.706Z,97.40
2022-12-31T23:06:58.931Z,97.40
2022-12-31T23:09:45.027Z,97.40
2022-12-31T23:12:13.392Z,97.40
2022-12-31T23:15:03.104Z,97.40
2022-12-31T23:18:04.410Z,97.40
2022-12-31T23:20:52.067Z,97.40
2022-12-31T23:23:20.543Z,97.40
2022-12-31T23:25:53.526Z,97.40
2022-12-31T23:28:26.104Z,97.40
2022-12-31T23:30:57.763Z,97.40
2022-12-31T23:33:27.659Z,97.40
2022-12-31T23:36:04.805Z,97.40
2022-12-31T23:38:32.964Z,97.40
2022-12-31T23:41:01.217Z,97.40
2022-12-31T23:43:31.176Z,97.40
2022-12-31T23:46:00.722Z,97.40
2022-12-31T23:48:30.560Z,97.40
2022-12-31T23:50:58.841Z,97.40
2022-12-31T23:53:27.071Z,97.40
2022-12-31T23:55:57.871Z,97.40
2022-12-31T23:58:26.040Z,97.40
